Jette Viking Hv77 — 5QEP — position and weather

sailwx.info

Track history (hours):
 
Tides and Currents Weather Stations Pressure Air Temp Water Temp Dewpoint Dewpoint Depression Visibility Wind Speed Wind Dir Waves Ship Positions

Jette Viking Hv77

Last reported at 2015-Nov-04 17:14 UTC. Time now 2016-Feb-08 18:53 UTC.
Position N 55°16' E 009°44'.
Warning: this ship's position is months out of date.

Length 16 m.

Type: Fishing. MMSI: 220046000.

Date/timePositionNaut miles runAvg speedWind from/ knotsBaromVisibWave heightAir tempDewpointWater temp
2015-Nov-04 17:14N 55°16' E 009°44'4 0.9
2015-Nov-04 12:20N 55°12' E 009°49'2 0.8
2015-Nov-04 09:27N 55°11' E 009°52'1 0.6
2015-Nov-04 08:07N 55°10' E 009°53'7 1.5
2015-Nov-04 03:13N 55°16' E 009°44'0 0.0
2015-Nov-04 02:34N 55°16' E 009°44'0 0.0
2015-Nov-04 01:31N 55°16' E 009°44'0 0.0
2015-Nov-03 23:33N 55°16' E 009°44'0 0.0
2015-Nov-03 21:23N 55°16' E 009°44'0 0.0
2015-Nov-03 20:30N 55°16' E 009°44'0 0.0
2015-Nov-03 19:32N 55°16' E 009°44'0 0.0
2015-Nov-03 02:12N 55°16' E 009°44'0 0.0
2015-Nov-03 00:32N 55°16' E 009°44'0 0.0
2015-Nov-02 23:33N 55°16' E 009°44'0 0.0
2015-Nov-02 22:29N 55°16' E 009°44'0 0.0
2015-Nov-02 21:33N 55°16' E 009°44'0 0.0
2015-Nov-02 20:33N 55°16' E 009°44'7 2.5
2015-Nov-02 17:33N 55°08' E 009°47'7 0.5
2015-Nov-02 03:19N 55°16' E 009°44'0 0.0
2015-Nov-02 02:33N 55°16' E 009°44'0 0.0
2015-Nov-01 23:05N 55°16' E 009°44'0 0.0
2015-Nov-01 21:18N 55°16' E 009°44'0 0.0
2015-Nov-01 20:11N 55°16' E 009°44'0 0.0
2015-Nov-01 19:10N 55°16' E 009°44'0 0.0
2015-Nov-01 18:15N 55°16' E 009°44'0 0.0
2015-Nov-01 13:27N 55°16' E 009°44'0 0.0
2015-Nov-01 02:32N 55°16' E 009°44'0 0.0
2015-Nov-01 01:15N 55°16' E 009°44'0 0.0
2015-Nov-01 00:27N 55°16' E 009°44'0 0.0
2015-Oct-31 23:31N 55°16' E 009°44'0 0.0
2015-Oct-31 20:15N 55°16' E 009°44'0 0.0
2015-Oct-31 08:33N 55°16' E 009°44'0 0.0
2015-Oct-31 03:25N 55°16' E 009°44'0 0.0
2015-Oct-31 01:22N 55°16' E 009°44'  
2015-Oct-27 21:09N 55°16' E 009°44'  
Track history (hours):
 
Tides and Currents Weather Stations Pressure Air Temp Water Temp Dewpoint Dewpoint Depression Visibility Wind Speed Wind Dir Waves Ship Positions

Jette Viking Hv77

Last reported at 2015-Nov-04 17:14 UTC. Time now 2016-Feb-08 18:53 UTC.
Position N 55°16' E 009°44'.
Warning: this ship's position is months out of date.

Length 16 m.

Type: Fishing. MMSI: 220046000.

Date/timePositionNaut miles runAvg speedWind from/ knotsBaromVisibWave heightAir tempDewpointWater temp
2015-Nov-04 17:14N 55°16' E 009°44'4 0.9
2015-Nov-04 12:20N 55°12' E 009°49'2 0.8
2015-Nov-04 09:27N 55°11' E 009°52'1 0.6
2015-Nov-04 08:07N 55°10' E 009°53'7 1.5
2015-Nov-04 03:13N 55°16' E 009°44'0 0.0
2015-Nov-04 02:34N 55°16' E 009°44'0 0.0
2015-Nov-04 01:31N 55°16' E 009°44'0 0.0
2015-Nov-03 23:33N 55°16' E 009°44'0 0.0
2015-Nov-03 21:23N 55°16' E 009°44'0 0.0
2015-Nov-03 20:30N 55°16' E 009°44'0 0.0
2015-Nov-03 19:32N 55°16' E 009°44'0 0.0
2015-Nov-03 02:12N 55°16' E 009°44'0 0.0
2015-Nov-03 00:32N 55°16' E 009°44'0 0.0
2015-Nov-02 23:33N 55°16' E 009°44'0 0.0
2015-Nov-02 22:29N 55°16' E 009°44'0 0.0
2015-Nov-02 21:33N 55°16' E 009°44'0 0.0
2015-Nov-02 20:33N 55°16' E 009°44'7 2.5
2015-Nov-02 17:33N 55°08' E 009°47'7 0.5
2015-Nov-02 03:19N 55°16' E 009°44'0 0.0
2015-Nov-02 02:33N 55°16' E 009°44'0 0.0
2015-Nov-01 23:05N 55°16' E 009°44'0 0.0
2015-Nov-01 21:18N 55°16' E 009°44'0 0.0
2015-Nov-01 20:11N 55°16' E 009°44'0 0.0
2015-Nov-01 19:10N 55°16' E 009°44'0 0.0
2015-Nov-01 18:15N 55°16' E 009°44'0 0.0
2015-Nov-01 13:27N 55°16' E 009°44'0 0.0
2015-Nov-01 02:32N 55°16' E 009°44'0 0.0
2015-Nov-01 01:15N 55°16' E 009°44'0 0.0
2015-Nov-01 00:27N 55°16' E 009°44'0 0.0
2015-Oct-31 23:31N 55°16' E 009°44'0 0.0
2015-Oct-31 20:15N 55°16' E 009°44'0 0.0
2015-Oct-31 08:33N 55°16' E 009°44'0 0.0
2015-Oct-31 03:25N 55°16' E 009°44'0 0.0
2015-Oct-31 01:22N 55°16' E 009°44'  
2015-Oct-27 21:09N 55°16' E 009°44'  

Dump ship's entire track history